sensor_id;sensor_type;location;lat;lon;timestamp;pressure;altitude;pressure_sealevel;temperature;humidity
69879;BME280;57161;43.136;24.706;2022-12-20T00:01:16;101583.13;;;-2.56;84.54
69879;BME280;57161;43.136;24.706;2022-12-20T00:03:42;101583.50;;;-2.50;84.42
69879;BME280;57161;43.136;24.706;2022-12-20T00:06:09;101586.22;;;-2.50;84.04
69879;BME280;57161;43.136;24.706;2022-12-20T00:08:36;101568.25;;;-2.51;83.95
69879;BME280;57161;43.136;24.706;2022-12-20T00:11:03;101571.41;;;-2.56;83.32
69879;BME280;57161;43.136;24.706;2022-12-20T00:13:29;101587.78;;;-2.49;83.46
69879;BME280;57161;43.136;24.706;2022-12-20T00:16:10;101583.84;;;-2.45;82.91
69879;BME280;57161;43.136;24.706;2022-12-20T00:18:37;101567.50;;;-2.59;83.58
69879;BME280;57161;43.136;24.706;2022-12-20T00:21:04;101571.81;;;-2.58;83.76
69879;BME280;57161;43.136;24.706;2022-12-20T00:23:30;101563.22;;;-2.67;83.76
69879;BME280;57161;43.136;24.706;2022-12-20T00:26:15;101581.59;;;-2.71;83.72
69879;BME280;57161;43.136;24.706;2022-12-20T00:28:41;101577.72;;;-2.74;84.33
69879;BME280;57161;43.136;24.706;2022-12-20T00:31:09;101590.97;;;-2.68;83.55
69879;BME280;57161;43.136;24.706;2022-12-20T00:33:36;101580.84;;;-2.82;83.58
69879;BME280;57161;43.136;24.706;2022-12-20T00:36:03;101582.44;;;-2.99;84.24
69879;BME280;57161;43.136;24.706;2022-12-20T00:38:28;101589.47;;;-2.98;84.71
69879;BME280;57161;43.136;24.706;2022-12-20T00:41:08;101581.66;;;-2.96;84.65
69879;BME280;57161;43.136;24.706;2022-12-20T00:43:35;101567.19;;;-2.96;84.31
69879;BME280;57161;43.136;24.706;2022-12-20T00:46:01;101559.41;;;-3.09;84.57
69879;BME280;57161;43.136;24.706;2022-12-20T00:48:27;101564.47;;;-3.00;84.71
69879;BME280;57161;43.136;24.706;2022-12-20T00:51:02;101556.69;;;-3.26;84.66
69879;BME280;57161;43.136;24.706;2022-12-20T00:53:28;101566.44;;;-3.18;85.15
69879;BME280;57161;43.136;24.706;2022-12-20T00:55:54;101550.81;;;-3.14;84.86
69879;BME280;57161;43.136;24.706;2022-12-20T00:58:20;101534.44;;;-3.39;84.81
69879;BME280;57161;43.136;24.706;2022-12-20T01:00:46;101528.56;;;-3.23;84.79
69879;BME280;57161;43.136;24.706;2022-12-20T01:03:12;101535.94;;;-3.03;84.16
69879;BME280;57161;43.136;24.706;2022-12-20T01:05:37;101515.25;;;-3.14;83.90
69879;BME280;57161;43.136;24.706;2022-12-20T01:08:04;101545.75;;;-3.09;83.81
69879;BME280;57161;43.136;24.706;2022-12-20T01:10:30;101544.97;;;-3.09;83.84
69879;BME280;57161;43.136;24.706;2022-12-20T01:12:56;101522.34;;;-3.38;84.21
69879;BME280;57161;43.136;24.706;2022-12-20T01:15:21;101532.06;;;-3.19;84.53
69879;BME280;57161;43.136;24.706;2022-12-20T01:17:47;101536.34;;;-3.11;84.21
69879;BME280;57161;43.136;24.706;2022-12-20T01:20:13;101513.72;;;-3.22;84.06
69879;BME280;57161;43.136;24.706;2022-12-20T01:22:38;101530.47;;;-3.10;83.92
69879;BME280;57161;43.136;24.706;2022-12-20T01:25:04;101515.28;;;-3.21;84.08
69879;BME280;57161;43.136;24.706;2022-12-20T01:27:30;101541.03;;;-3.12;83.97
69879;BME280;57161;43.136;24.706;2022-12-20T01:29:56;101525.44;;;-3.08;84.02
69879;BME280;57161;43.136;24.706;2022-12-20T01:32:21;101513.69;;;-3.08;83.55
69879;BME280;57161;43.136;24.706;2022-12-20T01:34:47;101521.50;;;-3.07;82.70
69879;BME280;57161;43.136;24.706;2022-12-20T01:37:12;101520.34;;;-3.13;83.09
69879;BME280;57161;43.136;24.706;2022-12-20T01:39:38;101516.84;;;-3.17;83.50
69879;BME280;57161;43.136;24.706;2022-12-20T01:42:04;101518.81;;;-3.21;83.28
69879;BME280;57161;43.136;24.706;2022-12-20T01:46:55;101506.34;;;-3.40;83.78
69879;BME280;57161;43.136;24.706;2022-12-20T01:54:25;101505.50;;;-3.26;83.42
69879;BME280;57161;43.136;24.706;2022-12-20T01:56:58;101507.88;;;-3.46;84.07
69879;BME280;57161;43.136;24.706;2022-12-20T01:59:26;101496.56;;;-3.51;84.10
69879;BME280;57161;43.136;24.706;2022-12-20T02:01:53;101497.34;;;-3.51;84.23
69879;BME280;57161;43.136;24.706;2022-12-20T02:04:21;101497.38;;;-3.54;84.70
69879;BME280;57161;43.136;24.706;2022-12-20T02:06:47;101498.13;;;-3.43;83.92
69879;BME280;57161;43.136;24.706;2022-12-20T02:09:12;101480.94;;;-3.47;83.99
69879;BME280;57161;43.136;24.706;2022-12-20T02:12:14;101477.06;;;-3.57;84.08
69879;BME280;57161;43.136;24.706;2022-12-20T02:20:49;101474.31;;;-3.64;84.79
69879;BME280;57161;43.136;24.706;2022-12-20T02:32:11;101476.66;;;-3.66;84.21
69879;BME280;57161;43.136;24.706;2022-12-20T02:34:40;101459.09;;;-3.69;84.57
69879;BME280;57161;43.136;24.706;2022-12-20T02:37:06;101473.91;;;-3.38;83.91
69879;BME280;57161;43.136;24.706;2022-12-20T02:39:33;101468.44;;;-3.34;82.81
69879;BME280;57161;43.136;24.706;2022-12-20T02:42:08;101464.94;;;-3.49;82.49
69879;BME280;57161;43.136;24.706;2022-12-20T02:44:38;101466.91;;;-3.53;82.49
69879;BME280;57161;43.136;24.706;2022-12-20T02:47:51;101456.00;;;-3.71;83.44
69879;BME280;57161;43.136;24.706;2022-12-20T02:50:22;101461.84;;;-3.69;83.61
69879;BME280;57161;43.136;24.706;2022-12-20T02:52:50;101450.91;;;-3.79;83.95
69879;BME280;57161;43.136;24.706;2022-12-20T02:55:16;101442.72;;;-3.83;84.27
69879;BME280;57161;43.136;24.706;2022-12-20T03:00:10;101447.00;;;-3.53;83.79
69879;BME280;57161;43.136;24.706;2022-12-20T03:02:38;101423.94;;;-3.52;82.61
69879;BME280;57161;43.136;24.706;2022-12-20T03:05:25;101441.53;;;-3.57;82.33
69879;BME280;57161;43.136;24.706;2022-12-20T03:07:51;101433.75;;;-3.73;83.06
69879;BME280;57161;43.136;24.706;2022-12-20T03:10:18;101431.78;;;-3.83;83.12
69879;BME280;57161;43.136;24.706;2022-12-20T03:12:44;101427.13;;;-3.89;83.96
69879;BME280;57161;43.136;24.706;2022-12-20T03:15:09;101443.13;;;-3.84;84.22
69879;BME280;57161;43.136;24.706;2022-12-20T03:17:35;101445.84;;;-3.74;84.15
69879;BME280;57161;43.136;24.706;2022-12-20T03:20:01;101437.25;;;-3.79;83.32
69879;BME280;57161;43.136;24.706;2022-12-20T03:22:26;101432.59;;;-3.86;83.66
69879;BME280;57161;43.136;24.706;2022-12-20T03:24:52;101447.78;;;-3.92;83.95
69879;BME280;57161;43.136;24.706;2022-12-20T03:27:17;101439.22;;;-3.90;84.23
69879;BME280;57161;43.136;24.706;2022-12-20T03:29:43;101450.13;;;-3.80;84.24
69879;BME280;57161;43.136;24.706;2022-12-20T03:32:10;101443.50;;;-3.72;83.97
69879;BME280;57161;43.136;24.706;2022-12-20T03:34:36;101437.25;;;-3.69;83.71
69879;BME280;57161;43.136;24.706;2022-12-20T03:37:01;101430.97;;;-3.58;83.39
69879;BME280;57161;43.136;24.706;2022-12-20T03:39:27;101452.06;;;-3.55;83.03
69879;BME280;57161;43.136;24.706;2022-12-20T03:41:52;101432.94;;;-3.66;82.99
69879;BME280;57161;43.136;24.706;2022-12-20T03:44:18;101438.03;;;-3.65;83.38
69879;BME280;57161;43.136;24.706;2022-12-20T03:46:43;101430.63;;;-3.82;83.95
69879;BME280;57161;43.136;24.706;2022-12-20T03:49:10;101438.03;;;-3.75;83.51
69879;BME280;57161;43.136;24.706;2022-12-20T03:51:35;101431.41;;;-3.88;83.76
69879;BME280;57161;43.136;24.706;2022-12-20T03:54:01;101451.31;;;-3.74;83.94
69879;BME280;57161;43.136;24.706;2022-12-20T03:56:26;101436.47;;;-3.83;83.64
69879;BME280;57161;43.136;24.706;2022-12-20T03:58:52;101447.41;;;-3.73;83.59
69879;BME280;57161;43.136;24.706;2022-12-20T04:01:21;101459.91;;;-3.72;83.41
69879;BME280;57161;43.136;24.706;2022-12-20T04:03:47;101448.97;;;-3.79;83.14
69879;BME280;57161;43.136;24.706;2022-12-20T04:06:12;101445.06;;;-3.85;83.28
69879;BME280;57161;43.136;24.706;2022-12-20T04:08:38;101414.63;;;-3.83;82.89
69879;BME280;57161;43.136;24.706;2022-12-20T04:11:03;101438.03;;;-3.86;83.71
69879;BME280;57161;43.136;24.706;2022-12-20T04:13:45;101438.78;;;-3.64;83.73
69879;BME280;57161;43.136;24.706;2022-12-20T04:16:15;101425.91;;;-3.60;82.44
69879;BME280;57161;43.136;24.706;2022-12-20T04:18:41;101448.53;;;-3.59;82.33
69879;BME280;57161;43.136;24.706;2022-12-20T04:21:07;101446.22;;;-3.75;83.15
69879;BME280;57161;43.136;24.706;2022-12-20T04:23:37;101445.06;;;-3.71;83.27
69879;BME280;57161;43.136;24.706;2022-12-20T04:26:05;101445.44;;;-3.83;83.83
69879;BME280;57161;43.136;24.706;2022-12-20T04:28:32;101442.31;;;-3.92;84.03
69879;BME280;57161;43.136;24.706;2022-12-20T04:30:58;101448.97;;;-3.89;84.17
69879;BME280;57161;43.136;24.706;2022-12-20T04:33:24;101438.81;;;-3.78;83.88
69879;BME280;57161;43.136;24.706;2022-12-20T04:35:50;101441.91;;;-3.62;82.95
69879;BME280;57161;43.136;24.706;2022-12-20T04:38:17;101423.56;;;-3.62;83.60
69879;BME280;57161;43.136;24.706;2022-12-20T04:40:42;101428.63;;;-3.49;82.40
69879;BME280;57161;43.136;24.706;2022-12-20T04:43:08;101412.25;;;-3.56;81.94
69879;BME280;57161;43.136;24.706;2022-12-20T04:45:34;101404.03;;;-3.60;81.99
69879;BME280;57161;43.136;24.706;2022-12-20T04:47:59;101426.22;;;-3.29;81.96
69879;BME280;57161;43.136;24.706;2022-12-20T04:50:25;101423.09;;;-3.21;81.07
69879;BME280;57161;43.136;24.706;2022-12-20T04:52:50;101422.31;;;-3.21;81.07
69879;BME280;57161;43.136;24.706;2022-12-20T04:55:40;101411.75;;;-3.26;81.05
69879;BME280;57161;43.136;24.706;2022-12-20T04:58:06;101395.38;;;-3.23;80.79
69879;BME280;57161;43.136;24.706;2022-12-20T05:00:33;101414.78;;;-2.99;79.89
69879;BME280;57161;43.136;24.706;2022-12-20T05:02:59;101422.19;;;-2.96;79.58
69879;BME280;57161;43.136;24.706;2022-12-20T05:05:25;101421.38;;;-2.86;79.02
69879;BME280;57161;43.136;24.706;2022-12-20T05:07:51;101401.91;;;-3.03;78.58
69879;BME280;57161;43.136;24.706;2022-12-20T05:10:17;101397.97;;;-2.98;78.24
69879;BME280;57161;43.136;24.706;2022-12-20T05:12:42;101404.97;;;-2.86;78.14
69879;BME280;57161;43.136;24.706;2022-12-20T05:15:09;101418.19;;;-2.78;77.64
69879;BME280;57161;43.136;24.706;2022-12-20T05:17:35;101409.19;;;-2.71;77.02
69879;BME280;57161;43.136;24.706;2022-12-20T05:20:00;101410.34;;;-2.68;77.04
69879;BME280;57161;43.136;24.706;2022-12-20T05:22:26;101415.88;;;-2.76;76.61
69879;BME280;57161;43.136;24.706;2022-12-20T05:25:10;101410.00;;;-2.81;76.64
69879;BME280;57161;43.136;24.706;2022-12-20T05:27:55;101406.13;;;-2.84;76.91
69879;BME280;57161;43.136;24.706;2022-12-20T05:30:21;101394.44;;;-2.88;76.76
69879;BME280;57161;43.136;24.706;2022-12-20T05:32:46;101416.59;;;-2.68;76.39
69879;BME280;57161;43.136;24.706;2022-12-20T05:35:12;101398.28;;;-2.82;76.17
69879;BME280;57161;43.136;24.706;2022-12-20T05:37:38;101416.66;;;-2.75;76.46
69879;BME280;57161;43.136;24.706;2022-12-20T05:40:03;101394.03;;;-2.86;76.44
69879;BME280;57161;43.136;24.706;2022-12-20T05:42:29;101413.13;;;-2.72;76.17
69879;BME280;57161;43.136;24.706;2022-12-20T05:44:55;101404.53;;;-2.74;76.05
69879;BME280;57161;43.136;24.706;2022-12-20T05:47:20;101401.75;;;-2.70;75.92
69879;BME280;57161;43.136;24.706;2022-12-20T05:49:45;101413.13;;;-2.72;75.61
69879;BME280;57161;43.136;24.706;2022-12-20T05:52:11;101406.13;;;-2.84;75.80
69879;BME280;57161;43.136;24.706;2022-12-20T05:54:36;101386.25;;;-2.95;76.07
69879;BME280;57161;43.136;24.706;2022-12-20T05:57:02;101399.44;;;-2.79;75.75
69879;BME280;57161;43.136;24.706;2022-12-20T05:59:28;101404.22;;;-2.90;75.71
69879;BME280;57161;43.136;24.706;2022-12-20T06:01:53;101387.84;;;-3.01;75.83
69879;BME280;57161;43.136;24.706;2022-12-20T06:04:19;101403.00;;;-2.86;75.63
69879;BME280;57161;43.136;24.706;2022-12-20T06:06:45;101385.47;;;-2.95;75.53
69879;BME280;57161;43.136;24.706;2022-12-20T06:09:10;101403.38;;;-2.80;74.94
69879;BME280;57161;43.136;24.706;2022-12-20T06:11:36;101376.47;;;-2.96;74.75
69879;BME280;57161;43.136;24.706;2022-12-20T06:14:02;101393.22;;;-2.83;74.70
69879;BME280;57161;43.136;24.706;2022-12-20T06:16:27;101383.09;;;-2.93;74.72
69879;BME280;57161;43.136;24.706;2022-12-20T06:18:53;101394.06;;;-2.90;74.82
69879;BME280;57161;43.136;24.706;2022-12-20T06:21:18;101399.53;;;-2.90;74.98
69879;BME280;57161;43.136;24.706;2022-12-20T06:23:44;101390.94;;;-2.92;75.10
69879;BME280;57161;43.136;24.706;2022-12-20T06:26:09;101375.72;;;-3.00;74.82
69879;BME280;57161;43.136;24.706;2022-12-20T06:28:35;101412.34;;;-2.80;74.98
69879;BME280;57161;43.136;24.706;2022-12-20T06:31:07;101397.59;;;-2.93;74.77
69879;BME280;57161;43.136;24.706;2022-12-20T06:33:33;101395.22;;;-2.94;75.07
69879;BME280;57161;43.136;24.706;2022-12-20T06:35:58;101396.81;;;-3.00;75.16
69879;BME280;57161;43.136;24.706;2022-12-20T06:38:24;101378.88;;;-3.05;75.39
69879;BME280;57161;43.136;24.706;2022-12-20T06:40:50;101406.97;;;-2.97;74.97
69879;BME280;57161;43.136;24.706;2022-12-20T06:43:15;101399.19;;;-3.06;75.06
69879;BME280;57161;43.136;24.706;2022-12-20T06:45:41;101360.56;;;-3.19;75.03
69879;BME280;57161;43.136;24.706;2022-12-20T06:48:07;101386.03;;;-3.43;76.26
69879;BME280;57161;43.136;24.706;2022-12-20T06:50:32;101382.53;;;-3.44;77.07
69879;BME280;57161;43.136;24.706;2022-12-20T06:52:58;101379.03;;;-3.41;76.60
69879;BME280;57161;43.136;24.706;2022-12-20T06:55:23;101385.66;;;-3.38;77.03
69879;BME280;57161;43.136;24.706;2022-12-20T06:57:48;101370.81;;;-3.37;77.14
69879;BME280;57161;43.136;24.706;2022-12-20T07:00:14;101385.19;;;-3.19;76.75
69879;BME280;57161;43.136;24.706;2022-12-20T07:02:40;101373.53;;;-3.34;76.99
69879;BME280;57161;43.136;24.706;2022-12-20T07:05:06;101370.78;;;-3.34;76.57
69879;BME280;57161;43.136;24.706;2022-12-20T07:07:32;101373.13;;;-3.32;77.17
69879;BME280;57161;43.136;24.706;2022-12-20T07:09:57;101347.81;;;-3.50;77.44
69879;BME280;57161;43.136;24.706;2022-12-20T07:12:23;101370.44;;;-3.46;77.69
69879;BME280;57161;43.136;24.706;2022-12-20T07:14:49;101380.97;;;-3.38;77.76
69879;BME280;57161;43.136;24.706;2022-12-20T07:17:14;101354.78;;;-3.35;77.44
69879;BME280;57161;43.136;24.706;2022-12-20T07:19:41;101369.19;;;-3.20;77.62
69879;BME280;57161;43.136;24.706;2022-12-20T07:22:06;101368.78;;;-3.19;77.83
69879;BME280;57161;43.136;24.706;2022-12-20T07:24:32;101363.63;;;-3.03;77.10
69879;BME280;57161;43.136;24.706;2022-12-20T07:26:58;101344.91;;;-3.08;76.44
69879;BME280;57161;43.136;24.706;2022-12-20T07:29:23;101343.28;;;-3.02;76.11
69879;BME280;57161;43.136;24.706;2022-12-20T07:31:50;101370.22;;;-2.89;75.62
69879;BME280;57161;43.136;24.706;2022-12-20T07:34:16;101376.88;;;-2.97;76.63
69879;BME280;57161;43.136;24.706;2022-12-20T07:36:41;101366.31;;;-2.95;76.89
69879;BME280;57161;43.136;24.706;2022-12-20T07:39:07;101368.28;;;-2.92;76.54
69879;BME280;57161;43.136;24.706;2022-12-20T07:41:33;101363.19;;;-2.90;75.92
69879;BME280;57161;43.136;24.706;2022-12-20T07:43:59;101336.91;;;-3.57;77.33
69879;BME280;57161;43.136;24.706;2022-12-20T07:46:25;101360.34;;;-3.67;78.42
69879;BME280;57161;43.136;24.706;2022-12-20T07:48:50;101361.94;;;-3.80;79.36
69879;BME280;57161;43.136;24.706;2022-12-20T07:53:49;101360.00;;;-3.87;78.65
69879;BME280;57161;43.136;24.706;2022-12-20T07:56:19;101333.47;;;-3.90;78.75
69879;BME280;57161;43.136;24.706;2022-12-20T07:58:46;101364.59;;;-3.59;78.76
69879;BME280;57161;43.136;24.706;2022-12-20T08:01:13;101357.94;;;-3.47;77.58
69879;BME280;57161;43.136;24.706;2022-12-20T08:03:45;101368.94;;;-3.72;78.44
69879;BME280;57161;43.136;24.706;2022-12-20T08:06:12;101363.47;;;-3.76;78.72
69879;BME280;57161;43.136;24.706;2022-12-20T08:08:42;101370.09;;;-3.63;78.40
69879;BME280;57161;43.136;24.706;2022-12-20T08:11:10;101366.13;;;-3.37;77.44
69879;BME280;57161;43.136;24.706;2022-12-20T08:13:36;101351.25;;;-3.32;77.53
69879;BME280;57161;43.136;24.706;2022-12-20T08:16:02;101373.81;;;-3.10;76.68
69879;BME280;57161;43.136;24.706;2022-12-20T08:18:27;101368.06;;;-3.34;77.12
69879;BME280;57161;43.136;24.706;2022-12-20T08:20:52;101342.75;;;-3.63;78.46
69879;BME280;57161;43.136;24.706;2022-12-20T08:23:18;101372.03;;;-3.52;78.90
69879;BME280;57161;43.136;24.706;2022-12-20T08:25:44;101366.94;;;-3.61;79.43
69879;BME280;57161;43.136;24.706;2022-12-20T08:28:09;101354.44;;;-3.48;78.87
69879;BME280;57161;43.136;24.706;2022-12-20T08:30:35;101361.06;;;-3.45;78.27
69879;BME280;57161;43.136;24.706;2022-12-20T08:33:00;101330.66;;;-3.65;77.89
69879;BME280;57161;43.136;24.706;2022-12-20T08:35:26;101347.38;;;-3.45;78.29
69879;BME280;57161;43.136;24.706;2022-12-20T08:37:52;101347.34;;;-3.35;78.70
69879;BME280;57161;43.136;24.706;2022-12-20T08:40:18;101345.69;;;-3.07;77.62
69879;BME280;57161;43.136;24.706;2022-12-20T08:42:44;101349.44;;;-2.83;77.90
69879;BME280;57161;43.136;24.706;2022-12-20T08:45:09;101338.41;;;-2.69;76.65
69879;BME280;57161;43.136;24.706;2022-12-20T08:47:35;101332.81;;;-2.51;75.47
69879;BME280;57161;43.136;24.706;2022-12-20T08:50:00;101332.63;;;-2.30;74.60
69879;BME280;57161;43.136;24.706;2022-12-20T08:52:28;101322.97;;;-2.45;74.84
69879;BME280;57161;43.136;24.706;2022-12-20T08:54:53;101335.38;;;-2.26;74.09
69879;BME280;57161;43.136;24.706;2022-12-20T08:57:19;101329.00;;;-2.16;73.96
69879;BME280;57161;43.136;24.706;2022-12-20T08:59:44;101327.34;;;-2.06;73.77
69879;BME280;57161;43.136;24.706;2022-12-20T09:02:11;101331.56;;;-1.95;72.65
69879;BME280;57161;43.136;24.706;2022-12-20T09:04:36;101315.31;;;-2.16;72.83
69879;BME280;57161;43.136;24.706;2022-12-20T09:07:02;101302.88;;;-2.24;73.53
69879;BME280;57161;43.136;24.706;2022-12-20T09:09:28;101317.53;;;-2.04;73.65
69879;BME280;57161;43.136;24.706;2022-12-20T09:11:53;101308.44;;;-1.94;73.08
69879;BME280;57161;43.136;24.706;2022-12-20T09:14:19;101292.06;;;-2.01;72.70
69879;BME280;57161;43.136;24.706;2022-12-20T09:16:44;101299.56;;;-2.05;73.49
69879;BME280;57161;43.136;24.706;2022-12-20T09:19:11;101296.78;;;-2.46;75.67
69879;BME280;57161;43.136;24.706;2022-12-20T09:21:37;101275.03;;;-2.64;76.24
69879;BME280;57161;43.136;24.706;2022-12-20T09:24:03;101279.16;;;-2.42;76.05
69879;BME280;57161;43.136;24.706;2022-12-20T09:26:29;101255.47;;;-2.62;76.16
69879;BME280;57161;43.136;24.706;2022-12-20T09:28:55;101278.53;;;-2.60;76.58
69879;BME280;57161;43.136;24.706;2022-12-20T09:31:22;101276.25;;;-2.68;77.20
69879;BME280;57161;43.136;24.706;2022-12-20T09:33:51;101280.50;;;-2.64;76.54
69879;BME280;57161;43.136;24.706;2022-12-20T09:36:18;101273.06;;;-2.60;76.56
69879;BME280;57161;43.136;24.706;2022-12-20T09:38:45;101269.50;;;-2.57;76.61
69879;BME280;57161;43.136;24.706;2022-12-20T09:41:31;101263.16;;;-2.47;76.43
69879;BME280;57161;43.136;24.706;2022-12-20T09:43:59;101257.41;;;-2.59;77.03
69879;BME280;57161;43.136;24.706;2022-12-20T09:46:28;101254.66;;;-2.56;76.37
69879;BME280;57161;43.136;24.706;2022-12-20T09:48:54;101240.59;;;-2.61;76.96
69879;BME280;57161;43.136;24.706;2022-12-20T09:59:19;101208.22;;;-2.25;76.44
69879;BME280;57161;43.136;24.706;2022-12-20T10:01:46;101222.38;;;-2.00;75.81
69879;BME280;57161;43.136;24.706;2022-12-20T10:04:24;101228.38;;;-2.08;75.23
69879;BME280;57161;43.136;24.706;2022-12-20T10:07:01;101217.59;;;-2.26;75.72
69879;BME280;57161;43.136;24.706;2022-12-20T10:22:40;101183.66;;;-2.36;75.39
69879;BME280;57161;43.136;24.706;2022-12-20T10:27:45;101179.38;;;-2.03;75.16
69879;BME280;57161;43.136;24.706;2022-12-20T10:30:16;101146.97;;;-2.08;74.17
69879;BME280;57161;43.136;24.706;2022-12-20T10:32:48;101136.69;;;-2.34;75.38
69879;BME280;57161;43.136;24.706;2022-12-20T10:40:30;101136.25;;;-2.29;75.44
69879;BME280;57161;43.136;24.706;2022-12-20T10:42:57;101074.00;;;-2.56;75.51
69879;BME280;57161;43.136;24.706;2022-12-20T10:45:42;101110.16;;;-2.07;75.77
69879;BME280;57161;43.136;24.706;2022-12-20T10:53:30;101101.94;;;-1.76;73.74
69879;BME280;57161;43.136;24.706;2022-12-20T10:58:37;101078.44;;;-2.04;74.58
69879;BME280;57161;43.136;24.706;2022-12-20T11:01:14;101109.69;;;-1.71;74.76
69879;BME280;57161;43.136;24.706;2022-12-20T11:06:22;101094.56;;;-2.10;75.95
69879;BME280;57161;43.136;24.706;2022-12-20T11:08:48;101093.19;;;-2.25;76.73
69879;BME280;57161;43.136;24.706;2022-12-20T11:11:20;101073.06;;;-2.12;76.25
69879;BME280;57161;43.136;24.706;2022-12-20T11:13:47;101084.91;;;-1.91;75.61
69879;BME280;57161;43.136;24.706;2022-12-20T11:16:27;101086.53;;;-1.97;75.72
69879;BME280;57161;43.136;24.706;2022-12-20T11:19:01;101067.78;;;-2.29;76.75
69879;BME280;57161;43.136;24.706;2022-12-20T11:24:46;101069.25;;;-2.21;78.04
69879;BME280;57161;43.136;24.706;2022-12-20T11:27:34;101068.31;;;-2.07;76.93
69879;BME280;57161;43.136;24.706;2022-12-20T11:51:48;101038.59;;;-2.39;78.54
69879;BME280;57161;43.136;24.706;2022-12-20T11:54:37;101050.16;;;-2.25;77.92
69879;BME280;57161;43.136;24.706;2022-12-20T11:57:33;101052.25;;;-2.36;77.98
69879;BME280;57161;43.136;24.706;2022-12-20T12:00:01;101043.25;;;-2.36;77.91
69879;BME280;57161;43.136;24.706;2022-12-20T12:05:04;101039.84;;;-2.48;78.80
69879;BME280;57161;43.136;24.706;2022-12-20T12:07:33;101032.00;;;-2.46;78.91
69879;BME280;57161;43.136;24.706;2022-12-20T12:10:22;101036.44;;;-2.25;78.62
69879;BME280;57161;43.136;24.706;2022-12-20T12:12:57;101043.78;;;-2.18;78.54
69879;BME280;57161;43.136;24.706;2022-12-20T12:15:34;101027.78;;;-2.50;78.97
69879;BME280;57161;43.136;24.706;2022-12-20T12:18:16;101009.84;;;-2.55;79.02
69879;BME280;57161;43.136;24.706;2022-12-20T12:26:21;101028.25;;;-2.25;79.47
69879;BME280;57161;43.136;24.706;2022-12-20T12:29:00;101019.56;;;-2.20;78.76
69879;BME280;57161;43.136;24.706;2022-12-20T12:34:15;101023.06;;;-2.19;78.93
69879;BME280;57161;43.136;24.706;2022-12-20T12:45:08;101023.38;;;-1.87;78.62
69879;BME280;57161;43.136;24.706;2022-12-20T12:50:43;101020.97;;;-2.08;78.57
69879;BME280;57161;43.136;24.706;2022-12-20T12:53:33;101014.78;;;-2.43;79.06
69879;BME280;57161;43.136;24.706;2022-12-20T13:01:53;101019.19;;;-2.52;79.75
69879;BME280;57161;43.136;24.706;2022-12-20T13:04:26;101002.22;;;-2.70;80.03
69879;BME280;57161;43.136;24.706;2022-12-20T13:06:58;101012.13;;;-2.50;79.96
69879;BME280;57161;43.136;24.706;2022-12-20T13:11:49;101003.31;;;-2.34;78.96
69879;BME280;57161;43.136;24.706;2022-12-20T13:16:53;101006.53;;;-2.12;78.11
69879;BME280;57161;43.136;24.706;2022-12-20T13:19:39;100994.59;;;-2.25;78.48
69879;BME280;57161;43.136;24.706;2022-12-20T13:24:57;100996.66;;;-2.06;78.10
69879;BME280;57161;43.136;24.706;2022-12-20T13:27:36;100993.88;;;-2.02;77.98
69879;BME280;57161;43.136;24.706;2022-12-20T13:37:58;100987.09;;;-2.21;77.19
69879;BME280;57161;43.136;24.706;2022-12-20T13:40:48;100990.63;;;-2.21;78.11
69879;BME280;57161;43.136;24.706;2022-12-20T13:51:15;100970.41;;;-2.03;78.39
69879;BME280;57161;43.136;24.706;2022-12-20T13:53:51;100943.38;;;-2.01;77.21
69879;BME280;57161;43.136;24.706;2022-12-20T13:58:54;100939.91;;;-2.05;76.42
69879;BME280;57161;43.136;24.706;2022-12-20T14:01:22;100975.09;;;-1.77;76.36
69879;BME280;57161;43.136;24.706;2022-12-20T14:03:49;100944.75;;;-1.90;75.90
69879;BME280;57161;43.136;24.706;2022-12-20T14:06:17;100946.13;;;-1.78;76.28
69879;BME280;57161;43.136;24.706;2022-12-20T14:08:46;100947.63;;;-1.73;75.56
69879;BME280;57161;43.136;24.706;2022-12-20T14:11:15;100962.31;;;-1.64;75.60
69879;BME280;57161;43.136;24.706;2022-12-20T14:13:53;100966.16;;;-1.58;75.49
69879;BME280;57161;43.136;24.706;2022-12-20T14:16:20;100947.03;;;-1.61;75.10
69879;BME280;57161;43.136;24.706;2022-12-20T14:19:10;100926.41;;;-1.69;75.23
69879;BME280;57161;43.136;24.706;2022-12-20T14:21:41;100949.13;;;-1.49;75.29
69879;BME280;57161;43.136;24.706;2022-12-20T14:24:16;100945.19;;;-1.48;74.76
69879;BME280;57161;43.136;24.706;2022-12-20T14:26:46;100933.47;;;-1.48;74.82
69879;BME280;57161;43.136;24.706;2022-12-20T14:29:18;100939.53;;;-1.37;74.24
69879;BME280;57161;43.136;24.706;2022-12-20T14:31:46;100942.34;;;-1.41;73.84
69879;BME280;57161;43.136;24.706;2022-12-20T14:34:19;100939.25;;;-1.43;73.88
69879;BME280;57161;43.136;24.706;2022-12-20T14:36:47;100933.84;;;-1.46;73.91
69879;BME280;57161;43.136;24.706;2022-12-20T14:39:28;100925.66;;;-1.50;74.19
69879;BME280;57161;43.136;24.706;2022-12-20T14:42:15;100909.84;;;-1.62;74.30
69879;BME280;57161;43.136;24.706;2022-12-20T14:44:43;100922.28;;;-1.58;74.70
69879;BME280;57161;43.136;24.706;2022-12-20T14:49:54;100906.03;;;-1.68;75.05
69879;BME280;57161;43.136;24.706;2022-12-20T14:55:06;100918.00;;;-1.59;75.44
69879;BME280;57161;43.136;24.706;2022-12-20T15:00:12;100902.09;;;-1.47;74.99
69879;BME280;57161;43.136;24.706;2022-12-20T15:02:39;100902.69;;;-1.56;74.45
69879;BME280;57161;43.136;24.706;2022-12-20T15:08:25;100887.69;;;-1.95;75.93
69879;BME280;57161;43.136;24.706;2022-12-20T15:11:00;100893.53;;;-1.93;76.17
69879;BME280;57161;43.136;24.706;2022-12-20T15:13:39;100863.09;;;-2.22;76.35
69879;BME280;57161;43.136;24.706;2022-12-20T15:16:20;100879.75;;;-2.13;76.59
69879;BME280;57161;43.136;24.706;2022-12-20T15:18:50;100876.84;;;-2.25;76.81
69879;BME280;57161;43.136;24.706;2022-12-20T15:21:31;100888.53;;;-2.21;77.37
69879;BME280;57161;43.136;24.706;2022-12-20T15:23:59;100858.19;;;-2.57;78.64
69879;BME280;57161;43.136;24.706;2022-12-20T15:26:26;100877.59;;;-2.48;78.75